sensor_id;sensor_type;location;lat;lon;timestamp;pressure;altitude;pressure_sealevel;temperature;humidity
78409;BME280;67697;50.750;-3.270;2023-09-19T00:01:02;100266.25;;;12.36;87.26
78409;BME280;67697;50.750;-3.270;2023-09-19T00:03:28;100268.01;;;12.25;87.55
78409;BME280;67697;50.750;-3.270;2023-09-19T00:05:53;100271.09;;;12.00;88.05
78409;BME280;67697;50.750;-3.270;2023-09-19T00:08:19;100266.22;;;11.95;89.23
78409;BME280;67697;50.750;-3.270;2023-09-19T00:10:44;100264.71;;;11.99;88.50
78409;BME280;67697;50.750;-3.270;2023-09-19T00:13:10;100257.12;;;12.53;86.87
78409;BME280;67697;50.750;-3.270;2023-09-19T00:15:37;100259.56;;;12.18;87.20
78409;BME280;67697;50.750;-3.270;2023-09-19T00:18:00;100256.53;;;12.82;84.09
78409;BME280;67697;50.750;-3.270;2023-09-19T00:20:26;100259.71;;;12.55;86.70
78409;BME280;67697;50.750;-3.270;2023-09-19T00:22:52;100262.66;;;12.22;88.18
78409;BME280;67697;50.750;-3.270;2023-09-19T00:25:18;100258.59;;;12.44;87.40
78409;BME280;67697;50.750;-3.270;2023-09-19T00:27:43;100251.24;;;12.65;86.12
78409;BME280;67697;50.750;-3.270;2023-09-19T00:30:09;100246.60;;;11.72;88.25
78409;BME280;67697;50.750;-3.270;2023-09-19T00:32:34;100239.38;;;12.27;87.77
78409;BME280;67697;50.750;-3.270;2023-09-19T00:34:59;100245.21;;;12.50;87.36
78409;BME280;67697;50.750;-3.270;2023-09-19T00:37:25;100244.57;;;12.46;86.08
78409;BME280;67697;50.750;-3.270;2023-09-19T00:39:51;100241.99;;;13.04;85.57
78409;BME280;67697;50.750;-3.270;2023-09-19T00:42:18;100235.00;;;12.32;87.13
78409;BME280;67697;50.750;-3.270;2023-09-19T00:44:42;100234.67;;;12.61;85.90
78409;BME280;67697;50.750;-3.270;2023-09-19T00:47:08;100231.64;;;12.45;85.46
78409;BME280;67697;50.750;-3.270;2023-09-19T00:49:33;100228.54;;;12.96;84.77
78409;BME280;67697;50.750;-3.270;2023-09-19T00:51:59;100230.09;;;13.32;81.17
78409;BME280;67697;50.750;-3.270;2023-09-19T00:54:25;100228.67;;;13.26;81.16
78409;BME280;67697;50.750;-3.270;2023-09-19T00:56:50;100232.72;;;13.04;82.92
78409;BME280;67697;50.750;-3.270;2023-09-19T00:59:16;100232.43;;;12.92;83.16
78409;BME280;67697;50.750;-3.270;2023-09-19T01:01:42;100224.74;;;12.32;87.17
78409;BME280;67697;50.750;-3.270;2023-09-19T01:04:08;100224.64;;;12.52;85.54
78409;BME280;67697;50.750;-3.270;2023-09-19T01:06:33;100219.86;;;12.89;84.32
78409;BME280;67697;50.750;-3.270;2023-09-19T01:08:58;100220.57;;;13.09;83.43
78409;BME280;67697;50.750;-3.270;2023-09-19T01:11:31;100225.07;;;12.47;85.39
78409;BME280;67697;50.750;-3.270;2023-09-19T01:13:56;100221.08;;;13.06;85.82
78409;BME280;67697;50.750;-3.270;2023-09-19T01:16:22;100226.98;;;12.54;86.79
78409;BME280;67697;50.750;-3.270;2023-09-19T01:18:47;100230.12;;;12.60;86.34
78409;BME280;67697;50.750;-3.270;2023-09-19T01:21:13;100230.00;;;12.54;86.42
78409;BME280;67697;50.750;-3.270;2023-09-19T01:23:42;100226.58;;;12.79;84.71
78409;BME280;67697;50.750;-3.270;2023-09-19T01:26:06;100227.59;;;13.04;84.50
78409;BME280;67697;50.750;-3.270;2023-09-19T01:28:31;100236.00;;;12.48;86.86
78409;BME280;67697;50.750;-3.270;2023-09-19T01:30:53;100236.77;;;12.80;86.12
78409;BME280;67697;50.750;-3.270;2023-09-19T01:33:14;100236.40;;;13.38;84.67
78409;BME280;67697;50.750;-3.270;2023-09-19T01:35:40;100238.27;;;13.73;82.54
78409;BME280;67697;50.750;-3.270;2023-09-19T01:38:05;100238.32;;;14.17;80.25
78409;BME280;67697;50.750;-3.270;2023-09-19T01:40:31;100232.54;;;13.83;80.93
78409;BME280;67697;50.750;-3.270;2023-09-19T01:42:59;100231.27;;;13.49;83.06
78409;BME280;67697;50.750;-3.270;2023-09-19T01:45:27;100226.13;;;13.32;82.30
78409;BME280;67697;50.750;-3.270;2023-09-19T01:47:50;100223.83;;;13.26;82.94
78409;BME280;67697;50.750;-3.270;2023-09-19T01:50:20;100219.95;;;13.82;81.95
78409;BME280;67697;50.750;-3.270;2023-09-19T01:52:45;100220.84;;;13.71;81.78
78409;BME280;67697;50.750;-3.270;2023-09-19T01:55:09;100221.75;;;14.59;78.59
78409;BME280;67697;50.750;-3.270;2023-09-19T01:57:34;100219.70;;;13.91;79.58
78409;BME280;67697;50.750;-3.270;2023-09-19T02:00:01;100218.81;;;14.15;79.29
78409;BME280;67697;50.750;-3.270;2023-09-19T02:02:22;100213.15;;;14.11;80.98
78409;BME280;67697;50.750;-3.270;2023-09-19T02:04:48;100206.36;;;14.25;80.07
78409;BME280;67697;50.750;-3.270;2023-09-19T02:07:13;100211.11;;;14.31;79.31
78409;BME280;67697;50.750;-3.270;2023-09-19T02:09:38;100203.51;;;14.57;79.33
78409;BME280;67697;50.750;-3.270;2023-09-19T02:12:05;100203.78;;;14.52;79.63
78409;BME280;67697;50.750;-3.270;2023-09-19T02:14:30;100204.88;;;14.50;79.10
78409;BME280;67697;50.750;-3.270;2023-09-19T02:16:55;100204.23;;;13.65;82.16
78409;BME280;67697;50.750;-3.270;2023-09-19T02:19:21;100200.37;;;13.78;83.78
78409;BME280;67697;50.750;-3.270;2023-09-19T02:21:47;100200.52;;;13.33;83.29
78409;BME280;67697;50.750;-3.270;2023-09-19T02:24:12;100198.39;;;13.50;84.37
78409;BME280;67697;50.750;-3.270;2023-09-19T02:26:38;100190.82;;;13.32;84.01
78409;BME280;67697;50.750;-3.270;2023-09-19T02:29:03;100191.45;;;13.86;81.93
78409;BME280;67697;50.750;-3.270;2023-09-19T02:31:29;100184.38;;;13.45;82.54
78409;BME280;67697;50.750;-3.270;2023-09-19T02:33:54;100186.16;;;13.44;84.11
78409;BME280;67697;50.750;-3.270;2023-09-19T02:36:20;100187.63;;;13.17;85.22
78409;BME280;67697;50.750;-3.270;2023-09-19T02:38:46;100183.49;;;13.19;85.21
78409;BME280;67697;50.750;-3.270;2023-09-19T02:41:11;100176.20;;;13.35;85.02
78409;BME280;67697;50.750;-3.270;2023-09-19T02:43:37;100171.46;;;13.59;84.36
78409;BME280;67697;50.750;-3.270;2023-09-19T02:46:02;100169.98;;;13.49;84.79
78409;BME280;67697;50.750;-3.270;2023-09-19T02:48:28;100166.59;;;13.17;84.42
78409;BME280;67697;50.750;-3.270;2023-09-19T02:50:54;100172.10;;;12.87;87.18
78409;BME280;67697;50.750;-3.270;2023-09-19T02:53:19;100169.10;;;13.01;86.68
78409;BME280;67697;50.750;-3.270;2023-09-19T02:55:46;100161.27;;;13.94;84.30
78409;BME280;67697;50.750;-3.270;2023-09-19T02:58:10;100155.28;;;13.85;82.34
78409;BME280;67697;50.750;-3.270;2023-09-19T03:00:36;100158.05;;;13.52;84.54
78409;BME280;67697;50.750;-3.270;2023-09-19T03:03:02;100151.62;;;13.65;83.60
78409;BME280;67697;50.750;-3.270;2023-09-19T03:05:27;100149.78;;;13.63;83.15
78409;BME280;67697;50.750;-3.270;2023-09-19T03:07:53;100148.05;;;13.48;83.92
78409;BME280;67697;50.750;-3.270;2023-09-19T03:10:20;100147.34;;;13.79;83.88
78409;BME280;67697;50.750;-3.270;2023-09-19T03:12:44;100149.32;;;13.62;85.40
78409;BME280;67697;50.750;-3.270;2023-09-19T03:15:10;100142.15;;;13.71;84.46
78409;BME280;67697;50.750;-3.270;2023-09-19T03:17:36;100143.40;;;13.76;84.93
78409;BME280;67697;50.750;-3.270;2023-09-19T03:20:01;100135.92;;;13.82;86.00
78409;BME280;67697;50.750;-3.270;2023-09-19T03:22:27;100131.02;;;13.63;87.45
78409;BME280;67697;50.750;-3.270;2023-09-19T03:24:52;100126.69;;;13.54;87.79
78409;BME280;67697;50.750;-3.270;2023-09-19T03:27:17;100119.87;;;13.55;87.75
78409;BME280;67697;50.750;-3.270;2023-09-19T03:29:43;100119.59;;;13.43;88.35
78409;BME280;67697;50.750;-3.270;2023-09-19T03:32:09;100119.19;;;13.65;87.48
78409;BME280;67697;50.750;-3.270;2023-09-19T03:34:36;100121.54;;;13.35;89.53
78409;BME280;67697;50.750;-3.270;2023-09-19T03:37:00;100111.57;;;13.56;88.80
78409;BME280;67697;50.750;-3.270;2023-09-19T03:39:25;100101.90;;;13.59;88.84
78409;BME280;67697;50.750;-3.270;2023-09-19T03:41:51;100102.27;;;13.16;90.29
78409;BME280;67697;50.750;-3.270;2023-09-19T03:44:16;100100.45;;;13.57;88.75
78409;BME280;67697;50.750;-3.270;2023-09-19T03:46:42;100102.29;;;13.30;89.43
78409;BME280;67697;50.750;-3.270;2023-09-19T03:49:08;100101.08;;;13.08;91.64
78409;BME280;67697;50.750;-3.270;2023-09-19T03:51:33;100096.32;;;12.80;94.19
78409;BME280;67697;50.750;-3.270;2023-09-19T03:53:59;100094.61;;;13.20;93.35
78409;BME280;67697;50.750;-3.270;2023-09-19T03:56:24;100090.98;;;13.20;93.37
78409;BME280;67697;50.750;-3.270;2023-09-19T03:58:50;100091.57;;;13.29;93.51
78409;BME280;67697;50.750;-3.270;2023-09-19T04:01:16;100092.60;;;13.00;94.32
78409;BME280;67697;50.750;-3.270;2023-09-19T04:03:41;100095.07;;;12.71;95.57
78409;BME280;67697;50.750;-3.270;2023-09-19T04:06:07;100091.41;;;12.97;94.98
78409;BME280;67697;50.750;-3.270;2023-09-19T04:08:33;100088.96;;;13.08;94.02
78409;BME280;67697;50.750;-3.270;2023-09-19T04:10:58;100083.57;;;12.99;93.64
78409;BME280;67697;50.750;-3.270;2023-09-19T04:13:24;100088.54;;;13.15;93.70
78409;BME280;67697;50.750;-3.270;2023-09-19T04:15:49;100092.48;;;13.03;96.33
78409;BME280;67697;50.750;-3.270;2023-09-19T04:18:15;100086.20;;;13.09;95.53
78409;BME280;67697;50.750;-3.270;2023-09-19T04:20:40;100075.62;;;13.48;92.63
78409;BME280;67697;50.750;-3.270;2023-09-19T04:23:06;100079.92;;;13.26;92.61
78409;BME280;67697;50.750;-3.270;2023-09-19T04:25:32;100078.08;;;13.47;93.11
78409;BME280;67697;50.750;-3.270;2023-09-19T04:27:57;100069.78;;;13.14;94.30
78409;BME280;67697;50.750;-3.270;2023-09-19T04:30:23;100067.83;;;13.18;93.26
78409;BME280;67697;50.750;-3.270;2023-09-19T04:32:48;100061.43;;;13.27;93.38
78409;BME280;67697;50.750;-3.270;2023-09-19T04:35:14;100064.98;;;13.33;93.91
78409;BME280;67697;50.750;-3.270;2023-09-19T04:37:40;100063.97;;;13.13;92.59
78409;BME280;67697;50.750;-3.270;2023-09-19T04:40:07;100059.22;;;13.28;92.51
78409;BME280;67697;50.750;-3.270;2023-09-19T04:42:31;100059.11;;;13.68;92.91
78409;BME280;67697;50.750;-3.270;2023-09-19T04:44:57;100061.99;;;13.16;93.22
78409;BME280;67697;50.750;-3.270;2023-09-19T04:47:22;100061.84;;;13.74;91.57
78409;BME280;67697;50.750;-3.270;2023-09-19T04:49:48;100059.28;;;13.26;92.63
78409;BME280;67697;50.750;-3.270;2023-09-19T04:52:13;100054.83;;;13.51;93.84
78409;BME280;67697;50.750;-3.270;2023-09-19T04:54:39;100057.07;;;13.10;95.22
78409;BME280;67697;50.750;-3.270;2023-09-19T04:57:04;100051.54;;;13.15;95.72
78409;BME280;67697;50.750;-3.270;2023-09-19T04:59:30;100052.12;;;13.50;94.05
78409;BME280;67697;50.750;-3.270;2023-09-19T05:01:56;100051.20;;;13.31;94.61
78409;BME280;67697;50.750;-3.270;2023-09-19T05:04:21;100052.43;;;13.34;95.01
78409;BME280;67697;50.750;-3.270;2023-09-19T05:06:47;100047.01;;;13.24;94.55
78409;BME280;67697;50.750;-3.270;2023-09-19T05:09:12;100044.46;;;13.31;93.50
78409;BME280;67697;50.750;-3.270;2023-09-19T05:11:38;100041.04;;;13.76;92.08
78409;BME280;67697;50.750;-3.270;2023-09-19T05:14:04;100042.51;;;13.67;92.81
78409;BME280;67697;50.750;-3.270;2023-09-19T05:16:29;100048.49;;;14.04;91.42
78409;BME280;67697;50.750;-3.270;2023-09-19T05:18:55;100051.75;;;13.93;90.07
78409;BME280;67697;50.750;-3.270;2023-09-19T05:21:20;100052.77;;;13.84;91.60
78409;BME280;67697;50.750;-3.270;2023-09-19T05:23:46;100054.26;;;13.61;92.50
78409;BME280;67697;50.750;-3.270;2023-09-19T05:26:12;100053.06;;;13.92;92.20
78409;BME280;67697;50.750;-3.270;2023-09-19T05:28:38;100044.33;;;13.91;92.04
78409;BME280;67697;50.750;-3.270;2023-09-19T05:31:03;100040.31;;;14.05;90.27
78409;BME280;67697;50.750;-3.270;2023-09-19T05:33:28;100038.81;;;13.48;90.54
78409;BME280;67697;50.750;-3.270;2023-09-19T05:35:54;100040.48;;;13.54;92.25
78409;BME280;67697;50.750;-3.270;2023-09-19T05:38:19;100040.43;;;13.91;90.98
78409;BME280;67697;50.750;-3.270;2023-09-19T05:40:45;100043.35;;;13.89;90.94
78409;BME280;67697;50.750;-3.270;2023-09-19T05:43:10;100043.20;;;13.52;92.85
78409;BME280;67697;50.750;-3.270;2023-09-19T05:45:36;100041.70;;;13.57;92.73
78409;BME280;67697;50.750;-3.270;2023-09-19T05:48:08;100041.92;;;13.85;91.98
78409;BME280;67697;50.750;-3.270;2023-09-19T05:50:27;100042.34;;;13.57;91.85
78409;BME280;67697;50.750;-3.270;2023-09-19T05:52:53;100041.80;;;13.42;92.56
78409;BME280;67697;50.750;-3.270;2023-09-19T05:55:17;100038.29;;;13.95;90.24
78409;BME280;67697;50.750;-3.270;2023-09-19T05:57:43;100044.49;;;14.43;88.68
78409;BME280;67697;50.750;-3.270;2023-09-19T06:00:09;100042.60;;;14.48;87.17
78409;BME280;67697;50.750;-3.270;2023-09-19T06:02:35;100032.20;;;13.72;90.61
78409;BME280;67697;50.750;-3.270;2023-09-19T06:05:00;100036.73;;;13.97;90.27
78409;BME280;67697;50.750;-3.270;2023-09-19T06:07:25;100031.70;;;14.12;89.67
78409;BME280;67697;50.750;-3.270;2023-09-19T06:09:51;100025.54;;;14.32;89.12
78409;BME280;67697;50.750;-3.270;2023-09-19T06:12:16;100026.63;;;13.94;90.05
78409;BME280;67697;50.750;-3.270;2023-09-19T06:14:42;100019.86;;;14.21;88.59
78409;BME280;67697;50.750;-3.270;2023-09-19T06:17:07;100018.65;;;14.44;86.79
78409;BME280;67697;50.750;-3.270;2023-09-19T06:19:33;100015.26;;;14.54;86.54
78409;BME280;67697;50.750;-3.270;2023-09-19T06:21:58;100019.72;;;14.42;87.07
78409;BME280;67697;50.750;-3.270;2023-09-19T06:24:24;100017.25;;;13.98;89.89
78409;BME280;67697;50.750;-3.270;2023-09-19T06:26:49;100019.44;;;14.30;88.78
78409;BME280;67697;50.750;-3.270;2023-09-19T06:29:15;100015.32;;;13.80;90.70
78409;BME280;67697;50.750;-3.270;2023-09-19T06:31:41;100021.62;;;13.72;91.65
78409;BME280;67697;50.750;-3.270;2023-09-19T06:34:06;100016.80;;;14.25;89.79
78409;BME280;67697;50.750;-3.270;2023-09-19T06:36:32;100005.10;;;14.42;89.40
78409;BME280;67697;50.750;-3.270;2023-09-19T06:38:57;100006.80;;;14.19;90.01
78409;BME280;67697;50.750;-3.270;2023-09-19T06:41:23;100005.80;;;14.19;89.83
78409;BME280;67697;50.750;-3.270;2023-09-19T06:43:48;100005.38;;;13.95;90.32
78409;BME280;67697;50.750;-3.270;2023-09-19T06:46:14;100005.77;;;13.81;91.85
78409;BME280;67697;50.750;-3.270;2023-09-19T06:48:39;100004.53;;;13.69;92.45
78409;BME280;67697;50.750;-3.270;2023-09-19T06:51:05;99998.73;;;13.67;93.26
78409;BME280;67697;50.750;-3.270;2023-09-19T06:53:31;99999.71;;;13.35;93.73
78409;BME280;67697;50.750;-3.270;2023-09-19T06:55:57;100003.24;;;13.79;94.39
78409;BME280;67697;50.750;-3.270;2023-09-19T06:58:22;100007.42;;;13.69;94.54
78409;BME280;67697;50.750;-3.270;2023-09-19T07:00:47;100009.93;;;13.87;93.81
78409;BME280;67697;50.750;-3.270;2023-09-19T07:03:14;100006.21;;;13.88;92.05
78409;BME280;67697;50.750;-3.270;2023-09-19T07:05:39;100010.62;;;14.32;91.22
78409;BME280;67697;50.750;-3.270;2023-09-19T07:08:04;100008.71;;;14.28;89.46
78409;BME280;67697;50.750;-3.270;2023-09-19T07:10:29;100010.58;;;14.58;89.44
78409;BME280;67697;50.750;-3.270;2023-09-19T07:12:56;100001.76;;;14.29;89.05
78409;BME280;67697;50.750;-3.270;2023-09-19T07:15:20;99994.12;;;13.98;89.56
78409;BME280;67697;50.750;-3.270;2023-09-19T07:17:45;99993.26;;;14.25;90.25
78409;BME280;67697;50.750;-3.270;2023-09-19T07:20:11;99994.80;;;14.53;89.09
78409;BME280;67697;50.750;-3.270;2023-09-19T07:22:37;99992.34;;;14.22;88.96
78409;BME280;67697;50.750;-3.270;2023-09-19T07:25:02;99993.01;;;14.27;88.60
78409;BME280;67697;50.750;-3.270;2023-09-19T07:27:28;99994.87;;;14.42;89.12
78409;BME280;67697;50.750;-3.270;2023-09-19T07:29:53;99999.17;;;13.89;90.12
78409;BME280;67697;50.750;-3.270;2023-09-19T07:32:18;100009.13;;;13.83;90.43
78409;BME280;67697;50.750;-3.270;2023-09-19T07:34:44;100013.22;;;13.97;89.43
78409;BME280;67697;50.750;-3.270;2023-09-19T07:37:09;100016.02;;;14.39;88.75
78409;BME280;67697;50.750;-3.270;2023-09-19T07:39:35;100011.32;;;14.01;91.05
78409;BME280;67697;50.750;-3.270;2023-09-19T07:42:01;100010.90;;;13.75;92.25
78409;BME280;67697;50.750;-3.270;2023-09-19T07:44:26;100006.04;;;14.02;91.38
78409;BME280;67697;50.750;-3.270;2023-09-19T07:46:51;100002.44;;;13.98;91.61
78409;BME280;67697;50.750;-3.270;2023-09-19T07:49:17;100003.24;;;14.02;92.25
78409;BME280;67697;50.750;-3.270;2023-09-19T07:51:42;99991.34;;;13.76;94.64
78409;BME280;67697;50.750;-3.270;2023-09-19T07:54:08;99994.06;;;13.98;93.50
78409;BME280;67697;50.750;-3.270;2023-09-19T07:56:34;99987.07;;;14.10;93.06
78409;BME280;67697;50.750;-3.270;2023-09-19T07:58:59;99988.57;;;14.06;93.46
78409;BME280;67697;50.750;-3.270;2023-09-19T08:01:24;99985.86;;;14.12;93.18
78409;BME280;67697;50.750;-3.270;2023-09-19T08:03:50;99996.36;;;14.09;93.29
78409;BME280;67697;50.750;-3.270;2023-09-19T08:06:15;99984.24;;;14.15;94.90
78409;BME280;67697;50.750;-3.270;2023-09-19T08:08:41;99991.36;;;13.87;97.15
78409;BME280;67697;50.750;-3.270;2023-09-19T08:11:06;99989.53;;;13.79;95.78
78409;BME280;67697;50.750;-3.270;2023-09-19T08:13:31;99994.45;;;13.63;97.55
78409;BME280;67697;50.750;-3.270;2023-09-19T08:15:57;99984.42;;;13.68;98.31
78409;BME280;67697;50.750;-3.270;2023-09-19T08:18:23;99983.81;;;13.79;98.47
78409;BME280;67697;50.750;-3.270;2023-09-19T08:20:50;99989.08;;;13.90;98.40
78409;BME280;67697;50.750;-3.270;2023-09-19T08:23:13;99985.34;;;13.50;99.30
78409;BME280;67697;50.750;-3.270;2023-09-19T08:25:39;99982.58;;;13.76;98.97
78409;BME280;67697;50.750;-3.270;2023-09-19T08:28:05;99986.86;;;13.55;98.99
78409;BME280;67697;50.750;-3.270;2023-09-19T08:30:30;99992.84;;;14.06;98.88
78409;BME280;67697;50.750;-3.270;2023-09-19T08:32:58;99987.46;;;13.98;99.55
78409;BME280;67697;50.750;-3.270;2023-09-19T08:35:21;99978.59;;;13.62;100.00
78409;BME280;67697;50.750;-3.270;2023-09-19T08:37:46;99979.12;;;13.76;100.00
78409;BME280;67697;50.750;-3.270;2023-09-19T08:40:12;99977.08;;;14.04;100.00
78409;BME280;67697;50.750;-3.270;2023-09-19T08:42:48;99977.15;;;14.11;100.00
78409;BME280;67697;50.750;-3.270;2023-09-19T08:45:04;99974.59;;;13.97;100.00
78409;BME280;67697;50.750;-3.270;2023-09-19T08:47:34;99971.91;;;13.89;100.00
78409;BME280;67697;50.750;-3.270;2023-09-19T08:50:00;99976.19;;;14.29;100.00
78409;BME280;67697;50.750;-3.270;2023-09-19T08:52:25;99977.78;;;13.95;99.79
78409;BME280;67697;50.750;-3.270;2023-09-19T08:54:47;99982.32;;;14.31;100.00
78409;BME280;67697;50.750;-3.270;2023-09-19T08:57:11;99981.81;;;13.96;99.77
78409;BME280;67697;50.750;-3.270;2023-09-19T08:59:38;99985.51;;;14.13;99.69
78409;BME280;67697;50.750;-3.270;2023-09-19T09:02:03;99982.26;;;14.57;98.15
78409;BME280;67697;50.750;-3.270;2023-09-19T09:04:28;99981.38;;;14.52;98.24
78409;BME280;67697;50.750;-3.270;2023-09-19T09:06:53;99980.37;;;14.37;98.59
78409;BME280;67697;50.750;-3.270;2023-09-19T09:09:20;99978.12;;;14.44;99.22
78409;BME280;67697;50.750;-3.270;2023-09-19T09:11:44;99980.36;;;14.51;98.59
78409;BME280;67697;50.750;-3.270;2023-09-19T09:14:10;99985.01;;;14.59;99.36
78409;BME280;67697;50.750;-3.270;2023-09-19T09:16:35;99979.05;;;14.47;98.95
78409;BME280;67697;50.750;-3.270;2023-09-19T09:19:01;99968.86;;;14.33;99.66
78409;BME280;67697;50.750;-3.270;2023-09-19T09:21:27;99973.64;;;14.15;100.00
78409;BME280;67697;50.750;-3.270;2023-09-19T09:23:52;99966.30;;;14.45;100.00
78409;BME280;67697;50.750;-3.270;2023-09-19T09:28:46;99973.00;;;14.71;100.00
78409;BME280;67697;50.750;-3.270;2023-09-19T09:33:35;99963.55;;;14.54;100.00
78409;BME280;67697;50.750;-3.270;2023-09-19T09:36:01;99968.00;;;14.77;100.00
78409;BME280;67697;50.750;-3.270;2023-09-19T09:38:27;99964.24;;;15.18;99.30
78409;BME280;67697;50.750;-3.270;2023-09-19T09:40:52;99972.03;;;14.86;100.00
78409;BME280;67697;50.750;-3.270;2023-09-19T09:43:26;99961.84;;;14.91;100.00
78409;BME280;67697;50.750;-3.270;2023-09-19T09:45:42;99969.31;;;15.07;100.00
78409;BME280;67697;50.750;-3.270;2023-09-19T09:48:08;99968.57;;;15.15;100.00
78409;BME280;67697;50.750;-3.270;2023-09-19T09:50:35;99973.48;;;15.28;100.00
78409;BME280;67697;50.750;-3.270;2023-09-19T09:52:59;99974.29;;;15.36;100.00
78409;BME280;67697;50.750;-3.270;2023-09-19T09:55:24;99966.20;;;15.00;100.00
78409;BME280;67697;50.750;-3.270;2023-09-19T10:00:16;99954.69;;;15.31;100.00
78409;BME280;67697;50.750;-3.270;2023-09-19T10:02:42;99950.34;;;15.48;100.00
78409;BME280;67697;50.750;-3.270;2023-09-19T10:05:12;99955.42;;;15.40;100.00
78409;BME280;67697;50.750;-3.270;2023-09-19T10:07:32;99956.01;;;15.33;100.00
78409;BME280;67697;50.750;-3.270;2023-09-19T10:09:59;99964.44;;;15.01;100.00
78409;BME280;67697;50.750;-3.270;2023-09-19T10:12:23;99956.08;;;14.96;100.00
78409;BME280;67697;50.750;-3.270;2023-09-19T10:14:49;99963.37;;;15.01;100.00
78409;BME280;67697;50.750;-3.270;2023-09-19T10:17:17;99960.23;;;14.93;100.00
78409;BME280;67697;50.750;-3.270;2023-09-19T10:19:45;99954.24;;;15.40;100.00
78409;BME280;67697;50.750;-3.270;2023-09-19T10:22:06;99959.88;;;15.39;100.00
78409;BME280;67697;50.750;-3.270;2023-09-19T10:24:33;99953.24;;;14.93;100.00
78409;BME280;67697;50.750;-3.270;2023-09-19T10:26:59;99951.47;;;15.49;100.00
78409;BME280;67697;50.750;-3.270;2023-09-19T10:29:23;99948.66;;;15.55;99.39
78409;BME280;67697;50.750;-3.270;2023-09-19T10:31:48;99948.32;;;15.56;99.52
78409;BME280;67697;50.750;-3.270;2023-09-19T10:34:14;99948.08;;;15.29;99.74
78409;BME280;67697;50.750;-3.270;2023-09-19T10:36:39;99955.54;;;15.45;99.80
78409;BME280;67697;50.750;-3.270;2023-09-19T10:39:06;99955.43;;;15.89;97.35
78409;BME280;67697;50.750;-3.270;2023-09-19T10:41:32;99951.26;;;15.70;99.19
78409;BME280;67697;50.750;-3.270;2023-09-19T10:43:57;99955.72;;;15.86;97.39
78409;BME280;67697;50.750;-3.270;2023-09-19T10:46:21;99960.26;;;15.98;98.70
78409;BME280;67697;50.750;-3.270;2023-09-19T10:48:46;99960.34;;;15.80;99.10
78409;BME280;67697;50.750;-3.270;2023-09-19T10:51:14;99959.64;;;15.88;97.60
78409;BME280;67697;50.750;-3.270;2023-09-19T10:53:45;99962.01;;;15.74;98.96
78409;BME280;67697;50.750;-3.270;2023-09-19T10:56:04;99964.27;;;15.87;99.01
78409;BME280;67697;50.750;-3.270;2023-09-19T10:58:30;99961.60;;;15.92;98.50
78409;BME280;67697;50.750;-3.270;2023-09-19T11:00:56;99960.15;;;16.18;97.26
78409;BME280;67697;50.750;-3.270;2023-09-19T11:03:21;99956.99;;;15.90;98.90
78409;BME280;67697;50.750;-3.270;2023-09-19T11:08:11;99954.43;;;16.17;96.00
78409;BME280;67697;50.750;-3.270;2023-09-19T11:10:45;99949.01;;;16.31;96.77
78409;BME280;67697;50.750;-3.270;2023-09-19T11:17:53;99947.61;;;16.28;97.04
78409;BME280;67697;50.750;-3.270;2023-09-19T11:20:23;99944.53;;;16.45;95.90
78409;BME280;67697;50.750;-3.270;2023-09-19T11:27:35;99942.14;;;16.99;93.58
78409;BME280;67697;50.750;-3.270;2023-09-19T11:34:51;99917.73;;;16.45;95.19
78409;BME280;67697;50.750;-3.270;2023-09-19T11:44:34;99926.14;;;17.36;92.83
78409;BME280;67697;50.750;-3.270;2023-09-19T11:46:59;99937.46;;;16.87;92.07
78409;BME280;67697;50.750;-3.270;2023-09-19T11:49:28;99945.40;;;17.07;92.50
78409;BME280;67697;50.750;-3.270;2023-09-19T11:51:51;99951.51;;;17.48;88.35
78409;BME280;67697;50.750;-3.270;2023-09-19T11:54:15;99947.47;;;16.90;92.34
78409;BME280;67697;50.750;-3.270;2023-09-19T11:56:41;99950.42;;;16.86;93.33
78409;BME280;67697;50.750;-3.270;2023-09-19T11:59:07;99947.15;;;16.92;92.83
78409;BME280;67697;50.750;-3.270;2023-09-19T12:01:33;99947.83;;;16.81;92.30
78409;BME280;67697;50.750;-3.270;2023-09-19T12:04:00;99960.76;;;16.88;92.03
78409;BME280;67697;50.750;-3.270;2023-09-19T12:06:24;99963.88;;;16.64;96.22
78409;BME280;67697;50.750;-3.270;2023-09-19T12:08:49;99956.72;;;15.84;100.00
78409;BME280;67697;50.750;-3.270;2023-09-19T12:11:15;99935.81;;;16.31;100.00
78409;BME280;67697;50.750;-3.270;2023-09-19T12:13:42;99959.17;;;15.79;100.00
78409;BME280;67697;50.750;-3.270;2023-09-19T12:16:12;99961.03;;;16.00;100.00
78409;BME280;67697;50.750;-3.270;2023-09-19T12:18:31;99955.71;;;16.55;100.00
78409;BME280;67697;50.750;-3.270;2023-09-19T12:20:57;99959.60;;;15.78;100.00
78409;BME280;67697;50.750;-3.270;2023-09-19T12:23:22;99951.78;;;16.48;100.00
78409;BME280;67697;50.750;-3.270;2023-09-19T12:25:47;99940.40;;;16.66;99.24
78409;BME280;67697;50.750;-3.270;2023-09-19T12:28:13;99936.01;;;16.94;97.92
78409;BME280;67697;50.750;-3.270;2023-09-19T12:30:38;99933.27;;;17.22;95.69
78409;BME280;67697;50.750;-3.270;2023-09-19T12:33:04;99928.12;;;17.26;95.96
78409;BME280;67697;50.750;-3.270;2023-09-19T12:35:31;99935.49;;;17.18;96.98
78409;BME280;67697;50.750;-3.270;2023-09-19T12:37:55;99936.27;;;16.76;97.45
78409;BME280;67697;50.750;-3.270;2023-09-19T12:40:21;99938.51;;;17.06;98.89
78409;BME280;67697;50.750;-3.270;2023-09-19T12:42:46;99941.10;;;16.98;97.94
78409;BME280;67697;50.750;-3.270;2023-09-19T12:45:12;99941.38;;;16.97;99.43
78409;BME280;67697;50.750;-3.270;2023-09-19T12:47:37;99941.83;;;17.07;98.94
78409;BME280;67697;50.750;-3.270;2023-09-19T12:50:07;99938.43;;;17.02;98.95
78409;BME280;67697;50.750;-3.270;2023-09-19T12:52:34;99938.38;;;17.05;94.80
78409;BME280;67697;50.750;-3.270;2023-09-19T12:54:53;99932.44;;;17.72;89.80
78409;BME280;67697;50.750;-3.270;2023-09-19T12:57:23;99935.51;;;16.82;92.83
78409;BME280;67697;50.750;-3.270;2023-09-19T12:59:44;99934.30;;;16.97;93.47
78409;BME280;67697;50.750;-3.270;2023-09-19T13:02:10;99932.07;;;17.63;89.20
78409;BME280;67697;50.750;-3.270;2023-09-19T13:04:36;99929.70;;;17.77;87.58